aviador You're here:

KGSO Decoded Metar

GREENSBORO in NC, USA
Report Time2017-07-23 07:54:00
UTC Time2017-07-23 08:44:59
Flight Rules vfr VFR
Wind250° at 09 kt
W.Decomp.*RWY 23: 7.9 kt HW 4.2 kt RCW
RWY 32: 4.2 kt HW 7.9 kt LCW
W.Rank250° ranks 10
Current wind is above 250° avg. (7.0)
Visibility9999 m
Phenomena:N/A
Clouds:Few 160 Hf
Expected CloudBase > 800 ft AGL from Temp-Dew spread
CeilingNone
Temp26°C (ISA +13)
Dew Point24°C (89% RH)
QNH1012 hPa
Density Alt2,808 ft
Elevation902 ft
Report Wrong Elevation
Raw Report
KGSO 230754Z 25009KT 10SM FEW160 26/24 A2987 RMK AO2 SLP100
T02560239=

Extra information for KGSO:More info

Metar Taf Metar & Taf Last 4 Metars F.Rules Stats Wind Profile Meteogram Temp Stats Airport Information Weather charts Add Link Nearby VenuesMetar ALERT Operation Metar Decoded Social comments

AIRNAV info for KGSO